Time;durP1;ratioP1;P1;durP2;ratioP2;P2;SDS_P1;SDS_P2;PMS_P1;PMS_P2;Temp;Humidity;BMP_temperature;BMP_pressure;BME280_temperature;BME280_humidity;BME280_pressure;Samples;Min_cycle;Max_cycle;Signal;HPM_P1;HPM_P2
2021/04/26 00:00:45;;;;;;;4.37;2.50;;;;;;;4.53;64.31;99522.56;1812884;78;21547;-74
2021/04/26 00:03:12;;;;;;;3.77;2.72;;;;;;;4.45;65.17;99523.38;1844591;78;21130;-74
2021/04/26 00:05:41;;;;;;;4.17;2.58;;;;;;;4.39;65.24;99530.62;1829298;78;21174;-74
2021/04/26 00:08:08;;;;;;;3.45;2.47;;;;;;;4.35;66.22;99536.93;1832232;78;21248;-74
2021/04/26 00:10:35;;;;;;;3.00;2.22;;;;;;;4.45;66.45;99535.17;1799784;78;21146;-74
2021/04/26 00:13:03;;;;;;;4.72;2.58;;;;;;;4.46;66.57;99546.03;1815629;78;21194;-75
2021/04/26 00:15:34;;;;;;;7.25;3.67;;;;;;;4.41;67.02;99534.02;1823167;78;21646;-74
2021/04/26 00:18:03;;;;;;;9.15;3.92;;;;;;;4.37;67.52;99531.61;1824114;78;21111;-74
2021/04/26 00:20:31;;;;;;;6.55;3.35;;;;;;;4.33;67.84;99541.38;1822092;78;21150;-74
2021/04/26 00:22:59;;;;;;;4.62;2.67;;;;;;;4.40;68.30;99540.65;1806251;78;21111;-74
2021/04/26 00:25:28;;;;;;;5.45;3.10;;;;;;;4.46;68.20;99539.48;1817027;78;21184;-74
2021/04/26 00:27:56;;;;;;;4.55;2.80;;;;;;;4.40;68.31;99541.95;1828419;78;21169;-74
2021/04/26 00:30:25;;;;;;;3.50;2.40;;;;;;;4.34;68.45;99556.17;1830470;78;21178;-73
2021/04/26 00:32:53;;;;;;;3.65;2.50;;;;;;;4.28;68.75;99557.77;1821112;78;21630;-74
2021/04/26 00:35:21;;;;;;;3.47;2.20;;;;;;;4.22;68.77;99551.51;1830588;78;21166;-74
2021/04/26 00:37:49;;;;;;;4.65;2.42;;;;;;;4.28;68.83;99558.24;1818767;78;21122;-73
2021/04/26 00:40:18;;;;;;;5.45;2.40;;;;;;;4.32;68.82;99547.53;1746248;81;21591;-74
2021/04/26 00:42:46;;;;;;;3.55;2.30;;;;;;;4.21;69.22;99536.75;1807760;78;21111;-73
2021/04/26 00:45:17;;;;;;;4.78;2.55;;;;;;;4.10;69.63;99543.34;1742069;81;21708;-74
2021/04/26 00:47:47;;;;;;;7.03;3.05;;;;;;;4.03;70.10;99536.69;1810109;78;21292;-73
2021/04/26 00:50:24;;;;;;;4.17;2.70;;;;;;;4.10;69.86;99531.56;1814091;78;21195;-73
2021/04/26 00:52:52;;;;;;;5.17;3.00;;;;;;;4.14;69.88;99527.48;1819281;78;21115;-73
2021/04/26 00:55:26;;;;;;;3.47;2.65;;;;;;;4.07;70.17;99518.61;1732351;82;21167;-73
2021/04/26 00:57:54;;;;;;;4.55;2.50;;;;;;;4.03;70.58;99518.37;1714785;82;21208;-73
2021/04/26 01:00:23;;;;;;;2.50;2.00;;;;;;;3.98;70.91;99522.97;1804540;79;21219;-73
2021/04/26 01:02:52;;;;;;;3.40;2.30;;;;;;;4.09;70.62;99515.91;1809479;78;21208;-74
2021/04/26 01:05:22;;;;;;;3.05;2.22;;;;;;;4.24;70.47;99510.41;1812451;78;21156;-74
2021/04/26 01:07:52;;;;;;;3.25;2.00;;;;;;;4.23;70.64;99496.94;1774471;81;21621;-74
2021/04/26 01:10:26;;;;;;;2.58;2.00;;;;;;;4.19;70.69;99505.86;1777755;79;21587;-74
2021/04/26 01:13:33;;;;;;;3.02;2.10;;;;;;;4.12;70.87;99506.63;1777287;79;21303;-74
2021/04/26 01:16:14;;;;;;;4.92;2.30;;;;;;;4.08;71.03;99513.77;1748193;81;21308;-74
2021/04/26 01:19:19;;;;;;;3.10;2.17;;;;;;;4.21;71.03;99504.03;1812698;78;21146;-75
2021/04/26 01:22:36;;;;;;;4.22;2.35;;;;;;;4.16;71.32;99502.93;1744178;82;21605;-74
2021/04/26 01:25:20;;;;;;;4.58;2.55;;;;;;;4.01;71.94;99492.72;1818940;78;21139;-74
2021/04/26 01:28:05;;;;;;;3.55;2.12;;;;;;;3.87;72.27;99480.76;1824788;78;21598;-74
2021/04/26 01:30:41;;;;;;;3.08;2.25;;;;;;;3.91;72.42;99467.91;1824661;78;21123;-74
2021/04/26 01:33:28;;;;;;;2.95;2.10;;;;;;;4.06;72.10;99459.80;1812905;78;21162;-74
2021/04/26 01:36:01;;;;;;;4.22;2.62;;;;;;;4.03;72.20;99460.80;1804645;79;21316;-74
2021/04/26 01:38:38;;;;;;;3.98;2.47;;;;;;;3.92;72.33;99460.46;1807263;78;21797;-74
2021/04/26 01:41:05;;;;;;;2.95;2.33;;;;;;;3.86;72.55;99460.75;1821309;78;21634;-74
2021/04/26 01:43:34;;;;;;;2.98;2.30;;;;;;;3.91;72.49;99465.30;1787705;78;21332;-74
2021/04/26 01:46:04;;;;;;;3.50;2.40;;;;;;;4.03;71.86;99472.58;1777716;79;21307;-74
2021/04/26 01:48:39;;;;;;;4.25;2.65;;;;;;;4.00;71.97;99464.85;1805549;78;21567;-75
2021/04/26 01:51:10;;;;;;;3.15;2.40;;;;;;;3.99;71.95;99474.95;1806114;79;21130;-74
2021/04/26 01:53:43;;;;;;;4.12;2.47;;;;;;;3.93;71.94;99477.86;1797232;78;21338;-74
2021/04/26 01:56:12;;;;;;;3.30;2.52;;;;;;;3.92;72.08;99464.38;1804509;79;21166;-74
2021/04/26 01:58:44;;;;;;;3.70;2.50;;;;;;;4.06;71.85;99451.95;1820453;78;21754;-75
2021/04/26 02:01:18;;;;;;;3.75;2.50;;;;;;;4.07;72.02;99458.89;1812511;78;21142;-75
2021/04/26 02:03:55;;;;;;;2.70;2.15;;;;;;;3.98;72.28;99470.64;1820964;78;21753;-74
2021/04/26 02:06:50;;;;;;;3.98;2.60;;;;;;;3.97;72.68;99469.41;1789785;79;23123;-74
2021/04/26 02:09:23;;;;;;;3.45;2.37;;;;;;;3.89;73.04;99464.06;1786618;80;21174;-73
2021/04/26 02:11:53;;;;;;;5.20;2.80;;;;;;;4.00;72.85;99460.92;1762558;80;21174;-73
2021/04/26 02:14:23;;;;;;;4.78;3.02;;;;;;;4.08;72.75;99460.59;1764795;80;21563;-74
2021/04/26 02:16:50;;;;;;;4.55;3.27;;;;;;;4.01;73.04;99461.32;1731696;81;21627;-73
2021/04/26 02:19:20;;;;;;;6.05;4.37;;;;;;;3.91;73.23;99464.86;1721774;81;21268;-72
2021/04/26 02:21:48;;;;;;;5.90;4.20;;;;;;;3.87;73.35;99454.59;1707320;83;21214;-73
2021/04/26 02:24:16;;;;;;;5.87;3.80;;;;;;;3.85;73.59;99438.11;1727592;83;21182;-73
2021/04/26 02:26:44;;;;;;;6.85;3.80;;;;;;;4.00;73.35;99442.61;1727855;83;21573;-74
2021/04/26 02:29:11;;;;;;;5.55;3.72;;;;;;;4.00;73.45;99432.14;1697913;83;21184;-74
2021/04/26 02:31:39;;;;;;;5.03;3.50;;;;;;;3.96;73.76;99431.91;1704954;84;21663;-75
2021/04/26 02:34:42;;;;;;;5.15;3.47;;;;;;;3.90;73.80;99424.35;1698588;84;21178;-74
2021/04/26 02:37:42;;;;;;;6.92;3.55;;;;;;;3.92;73.75;99423.83;1699755;84;21175;-74
2021/04/26 02:40:13;;;;;;;4.80;3.12;;;;;;;4.02;73.35;99412.00;1696734;84;21224;-74
2021/04/26 02:42:46;;;;;;;7.62;3.75;;;;;;;3.91;73.63;99405.13;1705395;84;21313;-75
2021/04/26 02:45:17;;;;;;;6.72;3.55;;;;;;;3.75;73.92;99405.86;1697496;84;21115;-74
2021/04/26 02:47:46;;;;;;;7.85;4.35;;;;;;;3.68;74.25;99394.46;1687273;83;21155;-74
2021/04/26 02:50:20;;;;;;;8.05;3.67;;;;;;;3.81;73.99;99390.80;1725076;83;21198;-74
2021/04/26 02:53:09;;;;;;;6.28;3.70;;;;;;;3.91;73.68;99367.19;1776581;79;23413;-73
2021/04/26 02:55:38;;;;;;;6.97;3.70;;;;;;;3.81;73.83;99365.95;1726578;82;21162;-73
2021/04/26 02:58:06;;;;;;;7.25;3.30;;;;;;;3.76;73.89;99367.02;1751842;81;21185;-74
2021/04/26 03:00:33;;;;;;;8.10;3.50;;;;;;;3.81;73.32;99371.17;1725118;82;21167;-73
2021/04/26 03:03:05;;;;;;;5.85;3.40;;;;;;;3.99;72.56;99382.51;1719556;83;21777;-74
2021/04/26 03:05:33;;;;;;;7.30;3.47;;;;;;;4.00;72.25;99376.36;1732678;82;21305;-75
2021/04/26 03:08:00;;;;;;;5.60;3.15;;;;;;;3.94;72.18;99374.91;1721030;82;21174;-74
2021/04/26 03:10:28;;;;;;;5.20;3.17;;;;;;;3.92;72.14;99363.66;1745553;82;21194;-75
2021/04/26 03:12:56;;;;;;;6.10;3.33;;;;;;;3.94;71.85;99367.05;1722947;83;21155;-74
2021/04/26 03:15:28;;;;;;;5.78;3.40;;;;;;;4.09;71.54;99369.36;1723079;83;21643;-73
2021/04/26 03:17:56;;;;;;;6.70;3.67;;;;;;;4.09;71.52;99379.38;1715988;83;21286;-74
2021/04/26 03:20:24;;;;;;;6.22;4.08;;;;;;;4.02;71.88;99377.14;1710699;83;21174;-74
2021/04/26 03:23:04;;;;;;;6.53;3.90;;;;;;;4.01;71.86;99384.13;1779663;79;23068;-74
2021/04/26 03:25:34;;;;;;;8.08;4.20;;;;;;;4.01;71.83;99365.81;1744358;82;21130;-73
2021/04/26 03:28:02;;;;;;;6.58;4.12;;;;;;;4.10;71.59;99366.69;1725355;82;21175;-74
2021/04/26 03:30:32;;;;;;;5.87;4.85;;;;;;;4.06;71.84;99358.58;1730408;82;21297;-73
2021/04/26 03:33:03;;;;;;;7.85;5.08;;;;;;;3.98;72.03;99354.20;1722012;83;21694;-74
2021/04/26 03:35:32;;;;;;;11.20;5.83;;;;;;;3.92;72.37;99362.34;1728129;82;21099;-74
2021/04/26 03:38:00;;;;;;;10.38;5.78;;;;;;;4.01;72.20;99357.96;1746946;82;21276;-73
2021/04/26 03:40:30;;;;;;;7.80;6.03;;;;;;;4.05;72.13;99362.14;1748533;82;21164;-73
2021/04/26 03:43:00;;;;;;;8.40;6.08;;;;;;;3.94;72.39;99375.73;1727056;82;21354;-73
2021/04/26 03:45:29;;;;;;;7.12;4.90;;;;;;;3.84;72.70;99390.19;1742256;82;21175;-73
2021/04/26 03:48:15;;;;;;;6.35;4.70;;;;;;;3.79;73.03;99390.04;1682974;84;21197;-75
2021/04/26 03:51:13;;;;;;;7.25;4.95;;;;;;;3.92;72.81;99391.13;1789525;78;22992;-73
2021/04/26 03:53:59;;;;;;;8.05;5.47;;;;;;;3.80;73.26;99399.56;1761403;80;21761;-74
2021/04/26 03:56:28;;;;;;;7.12;4.40;;;;;;;3.74;73.38;99405.47;1772529;80;21152;-75
2021/04/26 03:58:55;;;;;;;7.05;4.33;;;;;;;3.75;73.41;99404.56;1763080;80;21339;-75
2021/04/26 04:01:23;;;;;;;5.60;4.10;;;;;;;3.94;73.11;99404.99;1762073;80;21308;-75
2021/04/26 04:03:51;;;;;;;6.62;4.25;;;;;;;3.99;73.13;99397.77;1781763;80;21521;-75
2021/04/26 04:06:20;;;;;;;5.80;4.75;;;;;;;3.93;73.24;99394.97;1750793;81;21122;-75
2021/04/26 04:08:57;;;;;;;5.67;4.50;;;;;;;3.90;73.38;99390.34;1752454;80;21145;-75
2021/04/26 04:11:35;;;;;;;7.97;4.58;;;;;;;3.88;73.66;99394.34;1780161;79;23295;-73
2021/04/26 04:14:17;;;;;;;7.50;5.28;;;;;;;3.90;73.50;99402.11;1704685;83;21186;-73
2021/04/26 04:16:47;;;;;;;6.67;4.85;;;;;;;4.06;73.36;99400.45;1726086;82;21123;-73
2021/04/26 04:19:14;;;;;;;6.33;4.95;;;;;;;4.09;73.38;99400.31;1741452;82;21130;-74
2021/04/26 04:21:42;;;;;;;5.60;4.60;;;;;;;4.10;73.23;99383.70;1734442;82;21305;-74
2021/04/26 04:24:12;;;;;;;8.05;5.12;;;;;;;4.09;73.34;99387.23;1723042;83;21178;-74
2021/04/26 04:26:40;;;;;;;6.87;4.65;;;;;;;4.09;73.42;99385.92;1723023;83;21316;-74
2021/04/26 04:29:08;;;;;;;7.28;5.03;;;;;;;4.30;73.02;99388.84;1698907;83;21096;-74
2021/04/26 04:31:40;;;;;;;6.97;4.80;;;;;;;4.42;72.58;99390.84;1669958;85;21194;-74
2021/04/26 04:34:12;;;;;;;8.43;5.62;;;;;;;4.40;72.30;99402.71;1639744;85;21162;-74
2021/04/26 04:36:58;;;;;;;7.12;5.55;;;;;;;4.35;72.32;99408.64;1705534;84;21174;-75
2021/04/26 04:40:03;;;;;;;8.00;5.00;;;;;;;4.36;72.35;99405.55;1767871;79;22952;-73
2021/04/26 04:42:36;;;;;;;8.65;5.55;;;;;;;4.39;72.07;99407.55;1709601;83;21583;-75
2021/04/26 04:45:04;;;;;;;9.55;6.22;;;;;;;4.57;71.65;99402.32;1712563;82;21317;-74
2021/04/26 04:47:33;;;;;;;14.15;10.28;;;;;;;4.58;71.56;99410.09;1736970;82;21161;-74
2021/04/26 04:50:01;;;;;;;9.33;7.05;;;;;;;4.56;71.36;99417.17;1739866;82;21719;-73
2021/04/26 04:52:30;;;;;;;7.87;6.28;;;;;;;4.52;71.52;99410.40;1694568;83;21207;-73
2021/04/26 04:54:58;;;;;;;6.87;5.67;;;;;;;4.51;71.49;99407.39;1729334;82;21280;-73
2021/04/26 04:57:25;;;;;;;7.87;5.33;;;;;;;4.61;71.07;99403.02;1752484;82;21195;-73
2021/04/26 04:59:53;;;;;;;8.55;6.55;;;;;;;4.76;70.58;99398.30;1745126;82;21166;-73
2021/04/26 05:02:25;;;;;;;9.53;6.58;;;;;;;4.76;70.77;99388.64;1734919;82;22172;-73
2021/04/26 05:05:11;;;;;;;9.73;7.15;;;;;;;4.74;70.75;99394.45;1660691;85;21189;-73
2021/04/26 05:07:56;;;;;;;9.85;7.72;;;;;;;4.71;70.71;99393.75;1705593;84;21569;-73
2021/04/26 05:10:45;;;;;;;10.38;6.62;;;;;;;4.66;70.58;99393.15;1677844;85;21210;-75
2021/04/26 05:13:31;;;;;;;12.35;7.70;;;;;;;4.81;70.32;99398.90;1686854;84;21203;-74
2021/04/26 05:16:00;;;;;;;12.82;8.00;;;;;;;4.85;70.22;99403.05;1692438;84;21301;-74
2021/04/26 05:18:28;;;;;;;14.10;8.28;;;;;;;4.77;70.21;99403.92;1706977;84;21576;-74
2021/04/26 05:20:55;;;;;;;9.28;8.05;;;;;;;4.72;70.47;99403.31;1683060;84;21187;-74
2021/04/26 05:23:22;;;;;;;12.18;8.70;;;;;;;4.70;70.53;99405.98;1678783;85;21182;-74
2021/04/26 05:25:51;;;;;;;11.22;7.35;;;;;;;4.67;70.63;99402.23;1684203;85;21218;-74
2021/04/26 05:28:19;;;;;;;13.98;8.20;;;;;;;4.83;70.21;99404.05;1684251;85;21204;-74
2021/04/26 05:30:48;;;;;;;12.30;8.63;;;;;;;4.90;69.91;99408.05;1683664;85;21294;-74
2021/04/26 05:33:17;;;;;;;13.45;9.18;;;;;;;4.87;70.01;99405.58;1653630;85;21489;-74
2021/04/26 05:35:55;;;;;;;11.12;8.53;;;;;;;4.84;69.96;99414.92;1690675;84;21202;-73
2021/04/26 05:38:27;;;;;;;12.23;8.78;;;;;;;4.80;70.34;99416.02;1702803;84;21223;-73
2021/04/26 05:40:58;;;;;;;10.93;8.35;;;;;;;4.75;70.43;99411.84;1688447;85;21711;-74
2021/04/26 05:43:25;;;;;;;11.80;8.28;;;;;;;4.81;70.36;99411.13;1688662;85;21667;-74
2021/04/26 05:45:56;;;;;;;12.18;8.50;;;;;;;4.99;70.00;99413.28;1688837;85;21179;-75
2021/04/26 05:48:25;;;;;;;14.63;10.00;;;;;;;5.03;70.10;99414.80;1688093;85;21704;-74
2021/04/26 05:50:54;;;;;;;14.33;10.23;;;;;;;5.00;70.35;99409.27;1688220;85;21183;-74
2021/04/26 05:53:22;;;;;;;18.42;10.03;;;;;;;4.99;70.32;99416.73;1667211;85;21350;-74
2021/04/26 05:55:50;;;;;;;13.32;9.45;;;;;;;5.03;70.25;99402.53;1666790;86;21197;-74
2021/04/26 05:58:17;;;;;;;16.12;10.13;;;;;;;5.09;69.82;99404.84;1666803;86;21181;-74
2021/04/26 06:00:44;;;;;;;11.90;9.10;;;;;;;5.19;69.54;99412.20;1684479;85;21149;-74
2021/04/26 06:03:11;;;;;;;15.30;9.83;;;;;;;5.39;69.19;99397.55;1684900;84;21601;-75
2021/04/26 06:05:38;;;;;;;8.83;6.62;;;;;;;5.54;68.79;99393.72;1692445;85;21209;-74
2021/04/26 06:08:09;;;;;;;11.60;7.78;;;;;;;5.57;67.79;99397.00;1690385;84;21652;-75
2021/04/26 06:10:36;;;;;;;9.43;7.03;;;;;;;5.64;67.54;99401.91;1678350;85;21138;-74
2021/04/26 06:13:06;;;;;;;7.75;5.65;;;;;;;5.70;66.59;99394.56;1672363;85;21709;-74
2021/04/26 06:15:34;;;;;;;7.20;5.42;;;;;;;5.79;66.21;99396.28;1678789;85;21185;-75
2021/04/26 06:18:19;;;;;;;6.58;5.75;;;;;;;5.73;65.84;99376.02;1689104;84;21319;-75
2021/04/26 06:20:48;;;;;;;7.42;6.08;;;;;;;5.93;66.12;99389.77;1689312;85;21614;-75
2021/04/26 06:23:16;;;;;;;8.30;6.08;;;;;;;6.11;65.60;99391.01;1668891;85;21205;-77
2021/04/26 06:25:45;;;;;;;6.62;5.45;;;;;;;6.30;65.53;99387.68;1674652;85;21720;-77
2021/04/26 06:28:14;;;;;;;7.22;5.45;;;;;;;6.59;64.87;99394.33;1685223;84;21276;-75
2021/04/26 06:30:43;;;;;;;7.22;5.22;;;;;;;6.89;64.47;99392.09;1692784;85;21630;-76
2021/04/26 06:33:15;;;;;;;7.83;5.92;;;;;;;7.30;63.93;99403.63;1690038;84;21193;-74
2021/04/26 06:35:42;;;;;;;10.58;7.05;;;;;;;7.48;62.97;99397.23;1678044;84;21152;-74
2021/04/26 06:38:09;;;;;;;6.80;5.90;;;;;;;7.55;63.21;99392.42;1693235;83;21207;-75
2021/04/26 06:40:37;;;;;;;9.68;6.87;;;;;;;7.55;61.92;99402.94;1723917;83;21750;-74
2021/04/26 06:43:05;;;;;;;8.60;6.62;;;;;;;7.53;62.40;99391.66;1723829;83;21367;-74
2021/04/26 06:45:33;;;;;;;8.60;6.75;;;;;;;7.59;61.95;99399.17;1696565;84;21164;-76
2021/04/26 06:48:00;;;;;;;7.87;6.67;;;;;;;7.52;61.55;99393.45;1699464;83;21161;-78
2021/04/26 06:50:27;;;;;;;9.28;6.87;;;;;;;7.53;62.74;99391.66;1690481;84;21195;-76
2021/04/26 06:52:55;;;;;;;10.75;8.45;;;;;;;7.70;62.55;99398.02;1702892;83;21156;-77
2021/04/26 06:55:24;;;;;;;10.43;8.88;;;;;;;7.86;61.13;99393.94;1719123;83;21576;-77
2021/04/26 06:57:52;;;;;;;10.50;8.13;;;;;;;8.03;61.00;99389.33;1707152;84;21636;-76
2021/04/26 07:00:21;;;;;;;9.65;8.60;;;;;;;8.13;59.70;99385.63;1714400;83;21184;-75
2021/04/26 07:02:49;;;;;;;11.60;8.63;;;;;;;8.14;59.66;99383.37;1696428;84;21172;-77
2021/04/26 07:05:17;;;;;;;11.33;8.23;;;;;;;8.19;58.21;99379.48;1690736;83;21185;-77
2021/04/26 07:10:43;;;;;;;10.10;8.10;;;;;;;8.34;57.83;99380.25;1812680;77;22392;-76
2021/04/26 07:13:11;;;;;;;13.78;8.10;;;;;;;8.44;58.62;99377.85;1764628;81;21162;-77
2021/04/26 07:15:38;;;;;;;11.50;7.95;;;;;;;8.71;56.46;99378.73;1783700;80;21146;-78
2021/04/26 07:18:05;;;;;;;10.78;8.03;;;;;;;8.85;56.77;99377.33;1766255;79;21189;-78
2021/04/26 07:20:33;;;;;;;13.40;9.03;;;;;;;8.96;56.03;99377.89;1757006;80;21166;-79
2021/04/26 07:23:03;;;;;;;12.20;7.80;;;;;;;8.97;56.08;99372.98;1770597;79;21150;-77
2021/04/26 07:25:31;;;;;;;10.60;7.03;;;;;;;9.07;54.95;99385.07;1763875;80;21134;-76
2021/04/26 07:27:58;;;;;;;15.50;9.78;;;;;;;9.20;54.71;99381.92;1772685;79;21281;-77
2021/04/26 07:30:26;;;;;;;8.55;6.15;;;;;;;9.26;52.63;99378.85;1773418;80;21197;-77
2021/04/26 07:32:53;;;;;;;11.93;8.53;;;;;;;9.30;52.66;99376.84;1756411;82;21963;-75
2021/04/26 07:35:20;;;;;;;11.20;7.17;;;;;;;9.37;52.13;99381.20;1708923;82;21186;-77
2021/04/26 07:37:48;;;;;;;8.43;6.25;;;;;;;9.42;52.90;99370.67;1717363;81;21289;-75
2021/04/26 07:40:15;;;;;;;9.10;5.78;;;;;;;9.65;54.07;99365.08;1720298;81;21508;-80
2021/04/26 07:42:42;;;;;;;8.53;6.10;;;;;;;9.99;52.28;99370.51;1727158;83;21583;-79
2021/04/26 07:45:11;;;;;;;9.03;5.00;;;;;;;10.13;51.63;99364.69;1722596;79;21162;-79
2021/04/26 07:47:39;;;;;;;8.03;5.35;;;;;;;10.12;50.46;99368.28;1698613;84;21174;-78
2021/04/26 07:50:09;;;;;;;4.40;3.22;;;;;;;10.02;49.69;99365.97;1664978;86;21173;-78
2021/04/26 07:52:36;;;;;;;4.30;2.60;;;;;;;9.91;46.59;99365.42;1718932;83;21668;-80
2021/04/26 07:55:04;;;;;;;9.90;5.47;;;;;;;9.83;43.35;99355.42;1718250;83;21185;-78
2021/04/26 07:57:32;;;;;;;4.75;2.60;;;;;;;9.66;42.31;99358.81;1708072;83;21198;-79
2021/04/26 07:59:59;;;;;;;3.50;2.40;;;;;;;9.53;41.39;99359.81;1701064;84;21752;-78
2021/04/26 08:02:26;;;;;;;5.53;3.37;;;;;;;9.34;42.33;99369.07;1700848;84;21178;-80
2021/04/26 08:04:54;;;;;;;5.70;3.10;;;;;;;9.16;42.83;99360.19;1694478;84;21172;-78
2021/04/26 08:07:21;;;;;;;5.65;2.52;;;;;;;9.14;43.30;99362.56;1655908;85;21236;-78
2021/04/26 08:09:49;;;;;;;4.60;2.70;;;;;;;9.16;42.44;99359.35;1707527;84;21202;-78
2021/04/26 08:12:16;;;;;;;7.42;3.80;;;;;;;9.14;40.96;99362.11;1720180;82;21325;-78
2021/04/26 08:14:43;;;;;;;6.25;2.67;;;;;;;9.10;42.90;99361.09;1682714;84;21619;-78
2021/04/26 08:17:10;;;;;;;6.22;4.12;;;;;;;9.18;42.72;99358.75;1661774;85;21189;-78
2021/04/26 08:19:38;;;;;;;5.00;3.77;;;;;;;9.34;41.31;99361.16;1681074;84;21180;-78
2021/04/26 08:22:08;;;;;;;7.28;4.08;;;;;;;9.37;44.67;99364.05;1678420;84;21702;-76
2021/04/26 08:24:37;;;;;;;8.20;3.70;;;;;;;9.37;46.03;99360.09;1743463;81;21184;-76
2021/04/26 08:27:06;;;;;;;5.62;3.98;;;;;;;9.31;45.01;99362.22;1711643;84;21175;-76
2021/04/26 08:29:33;;;;;;;6.80;3.65;;;;;;;9.24;45.16;99362.27;1749672;81;21211;-75
2021/04/26 08:32:00;;;;;;;6.35;3.75;;;;;;;9.20;45.44;99356.03;1760221;81;21738;-76
2021/04/26 08:34:28;;;;;;;6.22;4.12;;;;;;;9.09;45.07;99361.59;1753823;81;21165;-76
2021/04/26 08:36:55;;;;;;;6.05;3.65;;;;;;;8.98;47.20;99367.59;1749786;81;21172;-77
2021/04/26 08:39:22;;;;;;;6.28;4.12;;;;;;;8.91;46.10;99368.97;1749839;81;21682;-78
2021/04/26 08:41:49;;;;;;;5.65;3.40;;;;;;;8.86;46.00;99361.85;1745952;81;21176;-78
2021/04/26 08:44:17;;;;;;;5.40;3.33;;;;;;;8.81;45.28;99367.92;1758387;80;21221;-77
2021/04/26 08:46:44;;;;;;;5.97;4.03;;;;;;;8.79;45.91;99369.84;1770557;80;21136;-78
2021/04/26 08:49:12;;;;;;;6.17;3.10;;;;;;;8.80;45.62;99368.89;1760134;80;21288;-78
2021/04/26 08:51:40;;;;;;;5.62;3.22;;;;;;;8.78;44.42;99372.93;1770496;80;21146;-77
2021/04/26 08:54:07;;;;;;;5.03;3.20;;;;;;;8.71;44.26;99371.69;1756940;80;21174;-79
2021/04/26 08:56:35;;;;;;;6.10;3.27;;;;;;;8.65;44.68;99367.66;1775569;80;21122;-76
2021/04/26 08:59:03;;;;;;;7.25;3.00;;;;;;;8.68;44.50;99372.74;1769918;80;21179;-76
2021/04/26 09:01:31;;;;;;;6.03;3.27;;;;;;;8.74;44.25;99373.27;1721446;83;21331;-76
2021/04/26 09:04:05;;;;;;;4.87;3.30;;;;;;;8.81;44.49;99379.78;1697330;84;21180;-76
2021/04/26 09:06:59;;;;;;;;;;;;;;;8.91;43.37;99378.20;1708948;83;21182;-76
2021/04/26 09:09:42;;;;;;;6.47;2.80;;;;;;;8.89;43.55;99377.48;1710198;83;20277;-76
2021/04/26 09:12:28;;;;;;;;;;;;;;;8.72;41.53;99373.38;1703864;83;21329;-77
2021/04/26 09:15:03;;;;;;;5.15;2.12;;;;;;;8.63;40.31;99381.44;1684725;84;20236;-75
2021/04/26 09:17:48;;;;;;;8.00;2.30;;;;;;;8.15;39.57;99333.70;1710693;83;21167;-79
2021/04/26 09:20:23;;;;;;;3.67;2.12;;;;;;;8.40;39.47;99390.02;1747805;82;21132;-74
2021/04/26 09:22:58;;;;;;;3.27;1.80;;;;;;;8.40;39.44;99375.06;1747714;82;21331;-75
2021/04/26 09:25:35;;;;;;;2.35;1.90;;;;;;;8.41;38.27;99374.58;1746733;82;21175;-74
2021/04/26 09:28:14;;;;;;;3.50;2.08;;;;;;;8.33;38.72;99383.83;1744066;82;21287;-75
2021/04/26 09:30:47;;;;;;;3.70;1.95;;;;;;;8.16;39.24;99388.91;1741943;82;21138;-76
2021/04/26 09:33:22;;;;;;;2.50;1.90;;;;;;;8.08;40.03;99386.41;1704617;83;21200;-75
2021/04/26 09:36:15;;;;;;;3.37;1.60;;;;;;;8.08;40.44;99382.45;1708277;84;21162;-77
2021/04/26 09:38:52;;;;;;;2.65;1.67;;;;;;;8.09;38.53;99384.16;1726453;82;21742;-77
2021/04/26 09:41:26;;;;;;;3.00;2.12;;;;;;;8.07;39.88;99389.98;1748217;82;21312;-77
2021/04/26 09:44:05;;;;;;;4.73;2.63;;;;;;;8.09;40.77;99385.47;1746173;82;21185;-75
2021/04/26 09:46:50;;;;;;;4.15;2.52;;;;;;;8.28;39.81;99380.66;1748147;82;21183;-76
2021/04/26 09:49:24;;;;;;;4.08;2.37;;;;;;;8.56;40.90;99389.38;1736936;82;21175;-76
2021/04/26 09:51:55;;;;;;;3.12;2.08;;;;;;;8.96;38.72;99372.12;1745864;82;21175;-76
2021/04/26 09:54:37;;;;;;;2.37;1.90;;;;;;;9.32;37.21;99381.06;1747606;82;21659;-76
2021/04/26 09:57:05;;;;;;;4.00;2.35;;;;;;;9.43;35.23;99376.81;1733652;82;21619;-76
2021/04/26 09:59:33;;;;;;;3.90;2.30;;;;;;;9.41;37.86;99373.42;1740474;82;21163;-75
2021/04/26 10:02:05;;;;;;;4.78;2.60;;;;;;;9.51;36.97;99379.27;1747812;82;21195;-75
2021/04/26 10:04:34;;;;;;;2.50;2.10;;;;;;;9.61;37.97;99378.60;1731384;82;21175;-75
2021/04/26 10:07:02;;;;;;;2.92;1.60;;;;;;;9.60;38.16;99380.38;1718627;82;21694;-77
2021/04/26 10:09:30;;;;;;;2.98;1.60;;;;;;;9.59;39.06;99390.59;1688070;82;21292;-75
2021/04/26 10:12:00;;;;;;;2.42;1.70;;;;;;;9.71;36.83;99382.75;1698354;84;21194;-73
2021/04/26 10:14:29;;;;;;;2.80;1.80;;;;;;;9.67;36.55;99378.99;1728141;83;21147;-74
2021/04/26 10:17:05;;;;;;;2.12;1.70;;;;;;;9.64;36.05;99381.87;1729887;82;21167;-74
2021/04/26 10:19:46;;;;;;;2.55;1.80;;;;;;;9.62;36.12;99381.13;1728507;83;21167;-75
2021/04/26 10:22:39;;;;;;;2.35;1.70;;;;;;;9.56;35.82;99389.48;1726510;83;21187;-76
2021/04/26 10:25:09;;;;;;;3.45;1.90;;;;;;;9.55;36.97;99386.47;1752456;82;21313;-75
2021/04/26 10:27:40;;;;;;;2.15;1.60;;;;;;;9.63;36.58;99381.50;1754382;82;21730;-75
2021/04/26 10:30:12;;;;;;;4.58;2.60;;;;;;;9.68;35.35;99380.69;1737166;82;21164;-75
2021/04/26 10:33:03;;;;;;;4.00;2.00;;;;;;;9.66;35.44;99377.30;1742179;81;21540;-75
2021/04/26 10:35:48;;;;;;;3.62;2.20;;;;;;;9.56;34.84;99378.09;1724687;82;21241;-75
2021/04/26 10:38:47;;;;;;;2.87;1.80;;;;;;;9.49;36.56;99387.77;1735664;81;21607;-74
2021/04/26 10:41:52;;;;;;;3.67;2.20;;;;;;;9.39;36.25;99378.82;1734998;82;21406;-74
2021/04/26 10:44:44;;;;;;;3.33;2.10;;;;;;;9.30;36.68;99392.19;1700752;84;21167;-75
2021/04/26 10:47:26;;;;;;;2.67;1.90;;;;;;;9.13;37.29;99388.56;1663311;85;21125;-74
2021/04/26 10:50:12;;;;;;;3.83;2.12;;;;;;;8.91;37.73;99383.47;1692882;84;21170;-73
2021/04/26 10:52:43;;;;;;;3.33;2.10;;;;;;;8.75;38.68;99392.92;1707044;82;21164;-74
2021/04/26 10:55:38;;;;;;;4.08;2.50;;;;;;;8.29;38.98;99340.69;1717606;82;21611;-73
2021/04/26 10:58:26;;;;;;;3.50;2.20;;;;;;;8.52;37.99;99399.77;1690317;82;21570;-73
2021/04/26 11:00:54;;;;;;;4.33;2.10;;;;;;;8.47;38.70;99394.80;1692880;84;21177;-74
2021/04/26 11:03:31;;;;;;;5.53;2.35;;;;;;;8.57;38.84;99402.08;1687116;82;21193;-73
2021/04/26 11:06:11;;;;;;;3.47;2.20;;;;;;;8.72;37.99;99398.87;1683879;84;21145;-73
2021/04/26 11:11:15;;;;;;;2.67;1.80;;;;;;;8.92;36.72;99392.25;1668127;86;21196;-73
2021/04/26 11:13:52;;;;;;;3.55;1.98;;;;;;;9.11;36.89;99382.58;1671981;84;21326;-74
2021/04/26 11:16:24;;;;;;;2.50;2.08;;;;;;;9.38;35.65;99377.62;1666561;86;21217;-73
2021/04/26 11:19:00;;;;;;;3.45;2.17;;;;;;;9.59;35.52;99370.80;1658226;84;21213;-74
2021/04/26 11:21:49;;;;;;;2.75;2.10;;;;;;;9.78;33.93;99365.02;1699969;84;21214;-75
2021/04/26 11:24:38;;;;;;;4.70;1.98;;;;;;;9.93;34.00;99375.41;1671864;84;21330;-73
2021/04/26 11:27:20;;;;;;;3.05;1.77;;;;;;;9.90;33.25;99368.55;1659362;84;21184;-73
2021/04/26 11:29:54;;;;;;;3.22;1.80;;;;;;;9.74;33.92;99370.63;1641362;87;21756;-74
2021/04/26 11:32:25;;;;;;;2.77;1.80;;;;;;;9.59;34.63;99376.53;1670732;84;21179;-74
2021/04/26 11:35:01;;;;;;;1.98;1.77;;;;;;;9.46;34.11;99380.54;1671981;85;21166;-73
2021/04/26 11:37:36;;;;;;;3.05;1.70;;;;;;;9.35;35.02;99383.47;1671314;84;21188;-75
2021/04/26 11:40:21;;;;;;;4.40;1.47;;;;;;;9.21;34.91;99378.34;1672713;86;21163;-74
2021/04/26 11:42:49;;;;;;;4.22;2.00;;;;;;;9.02;35.30;99376.98;1665163;84;21173;-73
2021/04/26 11:45:21;;;;;;;3.00;1.80;;;;;;;8.96;36.16;99378.72;1646088;87;21168;-74
2021/04/26 11:47:46;;;;;;;3.58;2.20;;;;;;;8.99;36.32;99370.61;1669265;84;21887;-75
2021/04/26 11:50:13;;;;;;;3.05;2.05;;;;;;;9.02;37.19;99376.98;1662177;86;21176;-74
2021/04/26 11:52:40;;;;;;;3.47;2.10;;;;;;;9.08;36.51;99380.13;1666316;84;21203;-74
2021/04/26 11:55:17;;;;;;;3.42;1.90;;;;;;;9.06;36.60;99377.61;1663394;84;21659;-73
2021/04/26 11:57:56;;;;;;;2.75;1.82;;;;;;;9.01;37.18;99379.27;1667366;83;21329;-75
2021/04/26 12:00:31;;;;;;;2.25;1.75;;;;;;;8.97;36.88;99379.09;1675054;84;21722;-72
2021/04/26 12:03:06;;;;;;;2.22;1.70;;;;;;;8.93;37.09;99377.63;1678667;85;21769;-73
2021/04/26 12:05:35;;;;;;;1.98;1.70;;;;;;;8.93;37.82;99378.11;1689265;84;21685;-72
2021/04/26 12:08:03;;;;;;;2.20;1.75;;;;;;;8.96;38.95;99382.67;1680544;85;21345;-72
2021/04/26 12:10:33;;;;;;;2.50;1.82;;;;;;;9.12;39.04;99372.40;1681429;84;21232;-73
2021/04/26 12:13:03;;;;;;;5.33;2.00;;;;;;;9.38;38.45;99367.06;1653583;87;21735;-73